createdAt,value
2022-10-25T00:00:02.885Z,976.57
2022-10-25T00:01:03.082Z,976.57
2022-10-25T00:02:03.249Z,976.52
2022-10-25T00:03:02.933Z,976.52
2022-10-25T00:04:03.086Z,976.43
2022-10-25T00:05:03.060Z,976.43
2022-10-25T00:06:03.201Z,976.54
2022-10-25T00:07:03.112Z,976.60
2022-10-25T00:08:03.207Z,976.55
2022-10-25T00:09:03.168Z,976.52
2022-10-25T00:10:03.620Z,976.69
2022-10-25T00:11:03.797Z,976.55
2022-10-25T00:12:03.782Z,976.52
2022-10-25T00:13:03.741Z,976.57
2022-10-25T00:14:03.868Z,976.55
2022-10-25T00:15:02.940Z,976.66
2022-10-25T00:16:03.012Z,976.69
2022-10-25T00:17:03.079Z,976.55
2022-10-25T00:18:03.127Z,976.63
2022-10-25T00:19:03.135Z,976.49
2022-10-25T00:20:03.137Z,976.46
2022-10-25T00:22:03.210Z,976.55
2022-10-25T00:23:03.327Z,976.60
2022-10-25T00:24:03.294Z,976.60
2022-10-25T00:25:03.556Z,976.58
2022-10-25T00:26:03.393Z,976.40
2022-10-25T00:27:03.374Z,976.55
2022-10-25T00:28:03.401Z,976.57
2022-10-25T00:29:03.473Z,976.49
2022-10-25T00:30:03.487Z,976.46
2022-10-25T00:31:03.527Z,976.43
2022-10-25T00:32:03.582Z,976.60
2022-10-25T00:33:03.523Z,976.43
2022-10-25T00:34:03.515Z,976.49
2022-10-25T00:35:03.644Z,976.43
2022-10-25T00:36:03.620Z,976.46
2022-10-25T00:37:03.719Z,976.55
2022-10-25T00:38:03.964Z,976.32
2022-10-25T00:39:02.868Z,976.38
2022-10-25T00:40:03.063Z,976.55
2022-10-25T00:41:03.014Z,976.49
2022-10-25T00:42:03.068Z,976.52
2022-10-25T00:43:03.213Z,976.61
2022-10-25T00:44:03.156Z,976.41
2022-10-25T00:45:03.089Z,976.67
2022-10-25T00:46:03.135Z,976.64
2022-10-25T00:47:03.087Z,976.64
2022-10-25T00:48:03.164Z,976.58
2022-10-25T00:49:03.191Z,976.55
2022-10-25T00:50:03.248Z,976.74
2022-10-25T00:51:03.308Z,976.61
2022-10-25T00:52:03.371Z,976.58
2022-10-25T00:53:03.396Z,976.56
2022-10-25T00:54:03.385Z,976.56
2022-10-25T00:55:03.467Z,976.67
2022-10-25T00:56:03.391Z,976.59
2022-10-25T00:57:03.368Z,976.61
2022-10-25T00:58:03.483Z,976.73
2022-10-25T00:59:03.483Z,976.64
2022-10-25T01:00:03.552Z,976.67
2022-10-25T01:01:03.658Z,976.65
2022-10-25T01:02:03.966Z,976.59
2022-10-25T01:03:03.829Z,976.65
2022-10-25T01:04:03.755Z,976.53
2022-10-25T01:05:03.652Z,976.48
2022-10-25T01:06:03.657Z,976.45
2022-10-25T01:07:03.706Z,976.68
2022-10-25T01:08:03.675Z,976.68
2022-10-25T01:09:03.696Z,976.75
2022-10-25T01:10:03.785Z,976.65
2022-10-25T01:11:02.976Z,976.62
2022-10-25T01:12:03.019Z,976.76
2022-10-25T01:13:02.945Z,976.68
2022-10-25T01:14:03.023Z,976.74
2022-10-25T01:15:03.111Z,976.76
2022-10-25T01:16:03.132Z,976.76
2022-10-25T01:17:03.138Z,976.74
2022-10-25T01:18:03.220Z,976.71
2022-10-25T01:19:03.218Z,976.65
2022-10-25T01:20:03.543Z,976.71
2022-10-25T01:21:03.511Z,976.65
2022-10-25T01:22:03.545Z,976.65
2022-10-25T01:23:03.742Z,976.60
2022-10-25T01:24:03.770Z,976.65
2022-10-25T01:25:03.729Z,976.65
2022-10-25T01:26:03.807Z,976.65
2022-10-25T01:27:02.893Z,976.71
2022-10-25T01:28:02.986Z,976.60
2022-10-25T01:29:03.849Z,976.68
2022-10-25T01:30:03.788Z,976.65
2022-10-25T01:31:03.733Z,976.60
2022-10-25T01:32:03.795Z,976.51
2022-10-25T01:33:03.823Z,976.60
2022-10-25T01:34:02.968Z,976.54
2022-10-25T01:35:02.948Z,976.54
2022-10-25T01:36:03.012Z,976.48
2022-10-25T01:37:03.059Z,976.60
2022-10-25T01:38:02.993Z,976.37
2022-10-25T01:39:03.032Z,976.65
2022-10-25T01:40:03.081Z,976.65
2022-10-25T01:41:03.115Z,976.62
2022-10-25T01:42:03.047Z,976.48
2022-10-25T01:43:03.051Z,976.59
2022-10-25T01:44:03.082Z,976.68
2022-10-25T01:45:03.038Z,976.71
2022-10-25T01:46:03.130Z,976.57
2022-10-25T01:47:03.153Z,976.68
2022-10-25T01:48:03.339Z,976.56
2022-10-25T01:49:03.515Z,976.68
2022-10-25T01:50:03.410Z,976.59
2022-10-25T01:51:03.393Z,976.71
2022-10-25T01:52:03.424Z,976.59
2022-10-25T01:53:03.554Z,976.74
2022-10-25T01:54:03.497Z,976.68
2022-10-25T01:55:03.538Z,976.74
2022-10-25T01:56:03.526Z,976.73
2022-10-25T01:57:03.531Z,976.84
2022-10-25T01:58:03.500Z,976.90
2022-10-25T01:59:03.671Z,976.87
2022-10-25T02:00:03.708Z,976.81
2022-10-25T02:01:03.912Z,976.78
2022-10-25T02:02:03.773Z,976.84
2022-10-25T02:03:03.760Z,976.78
2022-10-25T02:04:03.892Z,976.78
2022-10-25T02:05:03.842Z,976.92
2022-10-25T02:06:03.848Z,976.75
2022-10-25T02:07:02.963Z,976.73
2022-10-25T02:08:02.928Z,976.81
2022-10-25T02:09:02.919Z,976.87
2022-10-25T02:10:03.172Z,976.81
2022-10-25T02:11:03.963Z,976.75
2022-10-25T02:12:02.896Z,976.84
2022-10-25T02:13:03.131Z,976.75
2022-10-25T02:14:02.995Z,976.75
2022-10-25T02:15:03.003Z,976.73
2022-10-25T02:16:03.095Z,976.84
2022-10-25T02:17:03.317Z,976.78
2022-10-25T02:18:03.250Z,976.92
2022-10-25T02:19:03.454Z,976.81
2022-10-25T02:20:03.865Z,976.81
2022-10-25T02:21:02.930Z,976.71
2022-10-25T02:22:03.077Z,976.75
2022-10-25T02:23:03.030Z,976.78
2022-10-25T02:24:03.108Z,976.78
2022-10-25T02:25:03.038Z,976.81
2022-10-25T02:26:03.148Z,976.81
2022-10-25T02:27:03.092Z,976.90
2022-10-25T02:28:03.161Z,976.90
2022-10-25T02:29:03.677Z,976.84
2022-10-25T02:30:03.561Z,976.84
2022-10-25T02:31:03.614Z,976.81
2022-10-25T02:32:02.950Z,976.76
2022-10-25T02:33:02.907Z,976.79
2022-10-25T02:34:03.066Z,976.79
2022-10-25T02:35:03.187Z,976.87
2022-10-25T02:36:02.988Z,976.93
2022-10-25T02:37:03.079Z,976.90
2022-10-25T02:38:03.204Z,976.93
2022-10-25T02:39:03.081Z,976.85
2022-10-25T02:40:03.219Z,976.76
2022-10-25T02:41:03.195Z,976.82
2022-10-25T02:42:03.103Z,976.85
2022-10-25T02:43:03.154Z,976.82
2022-10-25T02:44:03.552Z,976.99
2022-10-25T02:45:03.559Z,976.94
2022-10-25T02:46:03.464Z,976.94
2022-10-25T02:47:03.877Z,976.91
2022-10-25T02:48:03.750Z,977.02
2022-10-25T02:49:03.847Z,976.97
2022-10-25T02:50:03.892Z,977.05
2022-10-25T02:51:04.018Z,977.11
2022-10-25T02:52:02.883Z,977.17
2022-10-25T02:53:02.921Z,976.97
2022-10-25T02:54:02.997Z,977.08
2022-10-25T02:55:03.042Z,977.20
2022-10-25T02:56:03.059Z,977.00
2022-10-25T02:57:03.182Z,977.06
2022-10-25T02:58:03.155Z,977.14
2022-10-25T02:59:03.530Z,977.14
2022-10-25T03:00:03.684Z,977.09
2022-10-25T03:01:03.809Z,977.03
2022-10-25T03:02:03.783Z,977.14
2022-10-25T03:03:03.763Z,977.11
2022-10-25T03:04:03.685Z,977.20
2022-10-25T03:05:03.847Z,977.20
2022-10-25T03:06:02.925Z,977.11
2022-10-25T03:07:03.927Z,977.17
2022-10-25T03:08:03.875Z,977.23
2022-10-25T03:09:03.008Z,977.12
2022-10-25T03:10:03.907Z,977.11
2022-10-25T03:11:02.962Z,977.26
2022-10-25T03:12:03.006Z,977.17
2022-10-25T03:13:03.712Z,977.23
2022-10-25T03:14:03.869Z,977.26
2022-10-25T03:15:03.810Z,977.14
2022-10-25T03:16:02.945Z,977.17
2022-10-25T03:17:03.037Z,977.20
2022-10-25T03:18:03.298Z,977.11
2022-10-25T03:19:03.335Z,977.26
2022-10-25T03:20:03.339Z,977.20
2022-10-25T03:21:03.376Z,977.34
2022-10-25T03:22:03.298Z,977.20
2022-10-25T03:23:03.279Z,977.28
2022-10-25T03:24:03.285Z,977.08
2022-10-25T03:25:03.545Z,977.20
2022-10-25T03:26:03.355Z,977.17
2022-10-25T03:27:03.363Z,977.20
2022-10-25T03:28:03.316Z,977.31
2022-10-25T03:29:03.400Z,977.23
2022-10-25T03:30:03.455Z,977.14
2022-10-25T03:31:03.526Z,977.28
2022-10-25T03:32:03.628Z,977.20
2022-10-25T03:33:03.691Z,977.22
2022-10-25T03:34:03.617Z,977.28
2022-10-25T03:35:03.711Z,977.17
2022-10-25T03:36:03.787Z,977.34
2022-10-25T03:37:03.842Z,977.22
2022-10-25T03:38:03.817Z,977.34
2022-10-25T03:39:03.901Z,977.40
2022-10-25T03:40:03.908Z,977.37
2022-10-25T03:41:03.068Z,977.42
2022-10-25T03:42:02.991Z,977.40
2022-10-25T03:43:03.095Z,977.31
2022-10-25T03:44:03.049Z,977.48
2022-10-25T03:45:03.140Z,977.31
2022-10-25T03:46:03.251Z,977.31
2022-10-25T03:47:03.160Z,977.28
2022-10-25T03:48:02.937Z,977.34
2022-10-25T03:49:03.034Z,977.43
2022-10-25T03:50:03.078Z,977.43
2022-10-25T03:51:03.188Z,977.31
2022-10-25T03:52:05.498Z,977.57
2022-10-25T03:53:03.641Z,977.60
2022-10-25T03:54:03.593Z,977.49
2022-10-25T03:55:03.592Z,977.46
2022-10-25T03:56:03.625Z,977.46
2022-10-25T03:57:03.616Z,977.55
2022-10-25T03:58:03.711Z,977.43
2022-10-25T03:59:03.822Z,977.52
2022-10-25T04:00:03.857Z,977.46
2022-10-25T04:01:04.174Z,977.52
2022-10-25T04:02:04.119Z,977.55
2022-10-25T04:03:03.983Z,977.38
2022-10-25T04:04:03.789Z,977.46
2022-10-25T04:05:02.927Z,977.58
2022-10-25T04:06:03.024Z,977.52
2022-10-25T04:07:03.180Z,977.58
2022-10-25T04:08:03.263Z,977.49
2022-10-25T04:09:03.215Z,977.74
2022-10-25T04:10:03.308Z,977.58
2022-10-25T04:11:03.306Z,977.69
2022-10-25T04:12:03.341Z,977.58
2022-10-25T04:13:03.409Z,977.69
2022-10-25T04:14:03.371Z,977.72
2022-10-25T04:15:03.395Z,977.66
2022-10-25T04:16:03.299Z,977.77
2022-10-25T04:17:03.488Z,977.78
2022-10-25T04:18:03.462Z,977.61
2022-10-25T04:19:03.407Z,977.58
2022-10-25T04:20:03.442Z,977.66
2022-10-25T04:21:03.348Z,977.55
2022-10-25T04:22:03.440Z,977.58
2022-10-25T04:23:03.587Z,977.75
2022-10-25T04:24:04.900Z,977.72
2022-10-25T04:25:03.997Z,977.75
2022-10-25T04:26:03.028Z,977.69
2022-10-25T04:27:03.107Z,977.75
2022-10-25T04:28:03.195Z,977.66
2022-10-25T04:29:03.174Z,977.61
2022-10-25T04:30:03.073Z,977.59
2022-10-25T04:31:03.236Z,977.75
2022-10-25T04:32:03.197Z,977.69
2022-10-25T04:33:03.206Z,977.56
2022-10-25T04:34:03.331Z,977.67
2022-10-25T04:35:03.385Z,977.72
2022-10-25T04:36:03.408Z,977.70
2022-10-25T04:37:03.365Z,977.70
2022-10-25T04:38:03.351Z,977.72
2022-10-25T04:39:03.395Z,977.81
2022-10-25T04:40:03.374Z,977.72
2022-10-25T04:41:03.518Z,977.73
2022-10-25T04:42:03.767Z,977.84
2022-10-25T04:43:03.659Z,977.72
2022-10-25T04:44:03.628Z,977.78
2022-10-25T04:45:03.796Z,977.78
2022-10-25T04:46:03.737Z,977.67
2022-10-25T04:47:03.864Z,977.75
2022-10-25T04:48:03.893Z,977.53
2022-10-25T04:49:03.932Z,977.75
2022-10-25T04:50:02.932Z,977.81
2022-10-25T04:51:03.923Z,977.70
2022-10-25T04:52:03.896Z,977.56
2022-10-25T04:53:03.857Z,977.59
2022-10-25T04:54:03.886Z,977.62
2022-10-25T04:55:03.804Z,977.69
2022-10-25T04:56:03.854Z,977.50
2022-10-25T04:57:02.905Z,977.66
2022-10-25T04:58:03.889Z,977.61
2022-10-25T04:59:03.042Z,977.61
2022-10-25T05:00:02.991Z,977.78
2022-10-25T05:01:03.147Z,977.53
2022-10-25T05:02:02.900Z,977.56
2022-10-25T05:03:03.392Z,977.66
2022-10-25T05:04:03.396Z,977.56
2022-10-25T05:05:03.387Z,977.69
2022-10-25T05:06:03.354Z,977.83
2022-10-25T05:07:03.425Z,977.61
2022-10-25T05:08:03.493Z,977.61
2022-10-25T05:09:03.605Z,977.72
2022-10-25T05:10:03.608Z,977.72
2022-10-25T05:11:03.791Z,977.78
2022-10-25T05:12:03.733Z,977.75
2022-10-25T05:13:03.805Z,977.78
2022-10-25T05:14:03.764Z,977.66
2022-10-25T05:15:02.902Z,977.81
2022-10-25T05:16:02.999Z,977.78
2022-10-25T05:17:03.134Z,977.92
2022-10-25T05:18:03.269Z,977.87
2022-10-25T05:19:03.246Z,977.81
2022-10-25T05:20:03.260Z,977.78
2022-10-25T05:21:03.162Z,977.81
2022-10-25T05:22:03.237Z,977.90
2022-10-25T05:23:03.210Z,977.78
2022-10-25T05:24:03.180Z,977.93
2022-10-25T05:25:03.139Z,977.81
2022-10-25T05:26:03.189Z,977.81
2022-10-25T05:27:03.308Z,977.96
2022-10-25T05:28:03.492Z,977.93
2022-10-25T05:29:10.344Z,977.84
2022-10-25T05:30:03.483Z,977.73
2022-10-25T05:31:03.042Z,977.82
2022-10-25T05:32:02.998Z,977.87
2022-10-25T05:33:05.253Z,977.79
2022-10-25T05:34:03.142Z,977.82
2022-10-25T05:35:03.295Z,977.82
2022-10-25T05:36:03.098Z,977.82
2022-10-25T05:37:03.001Z,977.90
2022-10-25T05:38:03.120Z,977.79
2022-10-25T05:39:03.018Z,977.93
2022-10-25T05:40:03.015Z,978.02
2022-10-25T05:41:03.065Z,977.90
2022-10-25T05:42:02.925Z,978.05
2022-10-25T05:43:02.992Z,978.02
2022-10-25T05:44:02.958Z,977.99
2022-10-25T05:45:03.441Z,978.05
2022-10-25T05:46:03.544Z,977.96
2022-10-25T05:47:03.571Z,977.93
2022-10-25T05:48:03.676Z,978.02
2022-10-25T05:49:03.615Z,978.10
2022-10-25T05:50:03.729Z,978.02
2022-10-25T05:51:32.789Z,977.93
2022-10-25T05:52:03.747Z,977.96
2022-10-25T05:53:03.697Z,978.10
2022-10-25T05:54:03.658Z,977.96
2022-10-25T05:55:03.799Z,978.08
2022-10-25T05:56:03.769Z,978.13
2022-10-25T05:57:03.858Z,978.16
2022-10-25T05:58:03.855Z,978.11
2022-10-25T05:59:03.819Z,978.16
2022-10-25T06:00:03.848Z,978.19
2022-10-25T06:01:03.961Z,978.13
2022-10-25T06:02:03.994Z,978.13
2022-10-25T06:03:03.727Z,978.16
2022-10-25T06:04:03.722Z,978.11
2022-10-25T06:05:03.708Z,978.13
2022-10-25T06:06:03.710Z,978.16
2022-10-25T06:07:03.878Z,978.19
2022-10-25T06:08:02.966Z,978.22
2022-10-25T06:09:02.998Z,978.19
2022-10-25T06:10:09.657Z,978.22
2022-10-25T06:11:02.962Z,978.19
2022-10-25T06:12:07.503Z,978.31
2022-10-25T06:13:03.028Z,978.25
2022-10-25T06:14:03.189Z,978.42
2022-10-25T06:15:03.239Z,978.28
2022-10-25T06:16:03.191Z,978.31
2022-10-25T06:17:03.303Z,978.31
2022-10-25T06:18:03.294Z,978.30
2022-10-25T06:19:03.411Z,978.36
2022-10-25T06:20:03.305Z,978.30
2022-10-25T06:21:04.166Z,978.39
2022-10-25T06:22:03.209Z,978.30
2022-10-25T06:23:03.192Z,978.42
2022-10-25T06:24:03.126Z,978.28
2022-10-25T06:25:03.103Z,978.42
2022-10-25T06:26:03.064Z,978.55
2022-10-25T06:27:03.252Z,978.61
2022-10-25T06:28:03.328Z,978.44
2022-10-25T06:29:03.467Z,978.49
2022-10-25T06:30:03.384Z,978.42
2022-10-25T06:31:03.468Z,978.39
2022-10-25T06:32:03.510Z,978.52
2022-10-25T06:33:03.503Z,978.52
2022-10-25T06:34:03.626Z,978.50
2022-10-25T06:35:03.635Z,978.47
2022-10-25T06:36:03.692Z,978.42
2022-10-25T06:37:03.690Z,978.61
2022-10-25T06:38:03.618Z,978.64
2022-10-25T06:39:06.998Z,978.64
2022-10-25T06:40:03.680Z,978.52
2022-10-25T06:41:03.845Z,978.52
2022-10-25T06:42:03.886Z,978.55
2022-10-25T06:43:03.838Z,978.52
2022-10-25T06:44:07.546Z,978.58
2022-10-25T06:45:03.061Z,978.52
2022-10-25T06:46:03.029Z,978.67
2022-10-25T06:47:18.189Z,978.72
2022-10-25T06:48:02.997Z,978.63
2022-10-25T06:49:03.074Z,978.66
2022-10-25T06:50:03.370Z,978.69
2022-10-25T06:51:03.237Z,978.68
2022-10-25T06:52:03.254Z,978.74
2022-10-25T06:53:03.355Z,978.71
2022-10-25T06:54:03.277Z,978.76
2022-10-25T06:55:03.288Z,978.76
2022-10-25T06:56:05.980Z,978.78
2022-10-25T06:57:03.478Z,978.75
2022-10-25T06:58:03.502Z,978.78
2022-10-25T06:59:03.669Z,978.78
2022-10-25T07:00:03.844Z,978.77
2022-10-25T07:01:03.273Z,978.63
2022-10-25T07:02:03.208Z,978.68
2022-10-25T07:03:03.316Z,978.77
2022-10-25T07:04:03.400Z,978.88
2022-10-25T07:05:03.473Z,978.96
2022-10-25T07:06:03.248Z,978.79
2022-10-25T07:07:03.324Z,978.70
2022-10-25T07:08:03.313Z,978.96
2022-10-25T07:09:03.355Z,979.01
2022-10-25T07:10:03.531Z,978.95
2022-10-25T07:11:03.651Z,978.84
2022-10-25T07:12:05.704Z,979.04
2022-10-25T07:13:03.751Z,979.03
2022-10-25T07:14:03.784Z,979.09
2022-10-25T07:15:03.879Z,979.00
2022-10-25T07:16:03.828Z,979.18
2022-10-25T07:17:03.878Z,979.09
2022-10-25T07:18:03.884Z,979.17
2022-10-25T07:19:02.977Z,979.29
2022-10-25T07:20:02.921Z,979.20
2022-10-25T07:21:03.096Z,979.32
2022-10-25T07:22:03.041Z,979.35
2022-10-25T07:23:08.878Z,979.24
2022-10-25T07:24:03.204Z,979.35
2022-10-25T07:25:03.443Z,979.35
2022-10-25T07:26:03.332Z,979.33
2022-10-25T07:27:03.424Z,979.47
2022-10-25T07:28:03.667Z,979.41
2022-10-25T07:29:03.575Z,979.38
2022-10-25T07:30:03.617Z,979.44
2022-10-25T07:31:03.637Z,979.52
2022-10-25T07:32:03.782Z,979.52
2022-10-25T07:33:03.945Z,979.35
2022-10-25T07:34:02.978Z,979.32
2022-10-25T07:35:03.026Z,979.57
2022-10-25T07:36:11.908Z,979.51
2022-10-25T07:37:03.136Z,979.40
2022-10-25T07:38:03.150Z,979.45
2022-10-25T07:39:03.189Z,979.39
2022-10-25T07:40:03.194Z,979.51
2022-10-25T07:41:03.190Z,979.50
2022-10-25T07:42:03.286Z,979.53
2022-10-25T07:43:03.445Z,979.47
2022-10-25T07:44:03.478Z,979.50
2022-10-25T07:45:03.431Z,979.53
2022-10-25T07:46:03.557Z,979.56
2022-10-25T07:47:03.546Z,979.50
2022-10-25T07:48:03.536Z,979.61
2022-10-25T07:49:03.714Z,979.67
2022-10-25T07:50:03.739Z,979.72
2022-10-25T07:51:03.859Z,979.52
2022-10-25T07:52:03.009Z,979.64
2022-10-25T07:53:03.172Z,979.67
2022-10-25T07:54:03.147Z,979.67
2022-10-25T07:55:03.183Z,979.81
2022-10-25T07:56:03.182Z,979.72
2022-10-25T07:57:03.180Z,979.67
2022-10-25T07:58:03.245Z,979.78
2022-10-25T07:59:03.256Z,979.64
2022-10-25T08:00:03.390Z,979.61
2022-10-25T08:01:03.585Z,979.66
2022-10-25T08:02:03.319Z,979.84
2022-10-25T08:03:03.536Z,979.78
2022-10-25T08:04:03.394Z,979.75
2022-10-25T08:05:03.350Z,979.60
2022-10-25T08:06:03.533Z,979.77
2022-10-25T08:07:03.435Z,979.69
2022-10-25T08:08:03.445Z,979.74
2022-10-25T08:10:03.150Z,979.80
2022-10-25T08:11:03.301Z,979.82
2022-10-25T08:12:03.395Z,979.85
2022-10-25T08:13:03.423Z,979.87
2022-10-25T08:14:03.546Z,979.79
2022-10-25T08:15:03.723Z,979.87
2022-10-25T08:16:03.833Z,979.76
2022-10-25T08:17:03.905Z,979.76
2022-10-25T08:18:03.913Z,979.73
2022-10-25T08:19:03.843Z,979.86
2022-10-25T08:20:02.943Z,979.89
2022-10-25T08:21:04.505Z,979.75
2022-10-25T08:22:02.973Z,979.94
2022-10-25T08:23:03.080Z,979.86
2022-10-25T08:24:03.502Z,979.78
2022-10-25T08:25:03.435Z,980.03
2022-10-25T08:26:03.587Z,979.78
2022-10-25T08:27:03.628Z,979.83
2022-10-25T08:28:03.751Z,979.91
2022-10-25T08:29:03.913Z,979.97
2022-10-25T08:30:02.957Z,979.80
2022-10-25T08:31:03.259Z,979.94
2022-10-25T08:32:03.919Z,980.02
2022-10-25T08:33:02.969Z,980.08
2022-10-25T08:34:03.118Z,980.05
2022-10-25T08:35:03.019Z,980.08
2022-10-25T08:36:03.189Z,980.00
2022-10-25T08:37:03.182Z,979.97
2022-10-25T08:38:03.187Z,980.03
2022-10-25T08:39:03.175Z,979.97
2022-10-25T08:40:03.269Z,980.08
2022-10-25T08:41:03.276Z,979.91
2022-10-25T08:42:03.277Z,980.14
2022-10-25T08:43:03.275Z,980.05
2022-10-25T08:44:03.403Z,980.08
2022-10-25T08:45:03.478Z,980.11
2022-10-25T08:46:03.548Z,979.97
2022-10-25T08:47:03.592Z,980.00
2022-10-25T08:48:03.572Z,980.06
2022-10-25T08:49:03.696Z,979.94
2022-10-25T08:50:03.859Z,980.00
2022-10-25T08:51:03.839Z,980.09
2022-10-25T08:52:03.034Z,980.06
2022-10-25T08:53:02.929Z,980.14
2022-10-25T08:54:03.037Z,980.00
2022-10-25T08:55:06.259Z,980.06
2022-10-25T08:56:17.555Z,980.28
2022-10-25T08:57:16.350Z,980.25
2022-10-25T08:58:03.336Z,979.95
2022-10-25T08:59:03.252Z,980.22
2022-10-25T09:00:03.792Z,980.22
2022-10-25T09:01:04.062Z,980.06
2022-10-25T09:02:04.324Z,980.15
2022-10-25T09:03:03.906Z,980.22
2022-10-25T09:04:03.011Z,980.17
2022-10-25T09:05:02.940Z,980.06
2022-10-25T09:06:02.919Z,980.09
2022-10-25T09:07:02.989Z,980.12
2022-10-25T09:08:03.411Z,980.34
2022-10-25T09:09:03.425Z,980.15
2022-10-25T09:10:03.486Z,980.37
2022-10-25T09:11:03.419Z,980.34
2022-10-25T09:12:03.445Z,980.26
2022-10-25T09:13:11.047Z,980.29
2022-10-25T09:14:03.485Z,980.40
2022-10-25T09:15:03.437Z,980.31
2022-10-25T09:16:03.487Z,980.26
2022-10-25T09:17:03.600Z,980.32
2022-10-25T09:18:03.664Z,980.37
2022-10-25T09:19:03.758Z,980.52
2022-10-25T09:20:03.985Z,980.32
2022-10-25T09:21:02.901Z,980.37
2022-10-25T09:22:03.047Z,980.29
2022-10-25T09:23:03.212Z,980.37
2022-10-25T09:24:03.370Z,980.37
2022-10-25T09:25:03.254Z,980.34
2022-10-25T09:26:03.463Z,980.12
2022-10-25T09:27:03.403Z,980.40
2022-10-25T09:28:03.559Z,980.28
2022-10-25T09:29:03.560Z,980.34
2022-10-25T09:30:07.711Z,980.37
2022-10-25T09:31:03.714Z,980.31
2022-10-25T09:32:03.757Z,980.37
2022-10-25T09:33:03.956Z,980.43
2022-10-25T09:34:04.856Z,980.42
2022-10-25T09:35:02.996Z,980.45
2022-10-25T09:36:03.014Z,980.31
2022-10-25T09:37:03.196Z,980.31
2022-10-25T09:38:03.216Z,980.48
2022-10-25T09:39:03.325Z,980.28
2022-10-25T09:40:03.460Z,980.42
2022-10-25T09:41:03.356Z,980.42
2022-10-25T09:42:03.488Z,980.31
2022-10-25T09:43:03.628Z,980.48
2022-10-25T09:44:03.515Z,980.36
2022-10-25T09:45:03.680Z,980.39
2022-10-25T09:46:03.689Z,980.54
2022-10-25T09:47:03.774Z,980.42
2022-10-25T09:48:03.899Z,980.39
2022-10-25T09:49:02.876Z,980.39
2022-10-25T09:50:03.828Z,980.54
2022-10-25T09:51:03.759Z,980.48
2022-10-25T09:52:03.881Z,980.60
2022-10-25T09:53:03.853Z,980.62
2022-10-25T09:54:03.796Z,980.54
2022-10-25T09:55:03.848Z,980.54
2022-10-25T09:56:03.839Z,980.57
2022-10-25T09:57:03.901Z,980.45
2022-10-25T09:58:03.882Z,980.60
2022-10-25T09:59:03.872Z,980.57
2022-10-25T10:00:02.963Z,980.57
2022-10-25T10:01:03.163Z,980.62
2022-10-25T10:02:03.469Z,980.45
2022-10-25T10:03:03.116Z,980.56
2022-10-25T10:04:03.090Z,980.56
2022-10-25T10:05:03.191Z,980.59
2022-10-25T10:06:03.097Z,980.59
2022-10-25T10:07:03.234Z,980.56
2022-10-25T10:08:03.243Z,980.62
2022-10-25T10:09:03.245Z,980.56
2022-10-25T10:10:03.290Z,980.64
2022-10-25T10:11:03.346Z,980.61
2022-10-25T10:12:03.297Z,980.61
2022-10-25T10:13:03.319Z,980.58
2022-10-25T10:14:07.631Z,980.49
2022-10-25T10:15:03.366Z,980.66
2022-10-25T10:16:03.351Z,980.72
2022-10-25T10:17:03.369Z,980.60
2022-10-25T10:18:03.373Z,980.49
2022-10-25T10:19:03.352Z,980.54
2022-10-25T10:20:03.341Z,980.57
2022-10-25T10:21:03.364Z,980.57
2022-10-25T10:22:03.318Z,980.71
2022-10-25T10:23:08.701Z,980.68
2022-10-25T10:24:03.499Z,980.65
2022-10-25T10:25:03.590Z,980.65
2022-10-25T10:26:03.679Z,980.62
2022-10-25T10:27:03.629Z,980.54
2022-10-25T10:28:03.768Z,980.77
2022-10-25T10:29:09.369Z,980.53
2022-10-25T10:30:03.780Z,980.65
2022-10-25T10:31:03.768Z,980.59
2022-10-25T10:32:03.816Z,980.51
2022-10-25T10:33:03.856Z,980.65
2022-10-25T10:34:03.873Z,980.50
2022-10-25T10:35:03.849Z,980.53
2022-10-25T10:36:02.886Z,980.59
2022-10-25T10:37:03.038Z,980.76
2022-10-25T10:38:03.141Z,980.68
2022-10-25T10:39:04.225Z,980.59
2022-10-25T10:40:03.383Z,980.53
2022-10-25T10:41:03.379Z,980.71
2022-10-25T10:42:03.554Z,980.50
2022-10-25T10:43:03.513Z,980.67
2022-10-25T10:44:03.465Z,980.53
2022-10-25T10:45:03.534Z,980.50
2022-10-25T10:46:03.599Z,980.53
2022-10-25T10:47:03.768Z,980.58
2022-10-25T10:48:03.791Z,980.53
2022-10-25T10:49:03.011Z,980.50
2022-10-25T10:50:03.033Z,980.52
2022-10-25T10:51:02.992Z,980.52
2022-10-25T10:52:03.072Z,980.44
2022-10-25T10:53:03.021Z,980.32
2022-10-25T10:54:03.045Z,980.41
2022-10-25T10:55:03.200Z,980.58
2022-10-25T10:56:03.113Z,980.58
2022-10-25T10:57:04.391Z,980.55
2022-10-25T10:58:03.384Z,980.58
2022-10-25T10:59:03.572Z,980.52
2022-10-25T11:00:03.550Z,980.46
2022-10-25T11:01:04.154Z,980.63
2022-10-25T11:02:04.051Z,980.48
2022-10-25T11:03:03.855Z,980.51
2022-10-25T11:04:02.971Z,980.43
2022-10-25T11:05:03.096Z,980.48
2022-10-25T11:06:03.207Z,980.42
2022-10-25T11:07:03.272Z,980.39
2022-10-25T11:08:03.233Z,980.54
2022-10-25T11:09:03.218Z,980.51
2022-10-25T11:10:03.354Z,980.48
2022-10-25T11:11:03.424Z,980.53
2022-10-25T11:12:03.498Z,980.56
2022-10-25T11:13:03.582Z,980.62
2022-10-25T11:14:03.533Z,980.47
2022-10-25T11:15:03.624Z,980.62
2022-10-25T11:16:03.692Z,980.71
2022-10-25T11:17:03.645Z,980.59
2022-10-25T11:18:03.809Z,980.64
2022-10-25T11:19:03.854Z,980.70
2022-10-25T11:20:02.994Z,980.82
2022-10-25T11:21:03.135Z,980.76
2022-10-25T11:22:03.059Z,980.76
2022-10-25T11:23:05.772Z,980.62
2022-10-25T11:24:03.121Z,980.88
2022-10-25T11:25:03.246Z,980.88
2022-10-25T11:26:03.312Z,980.94
2022-10-25T11:27:03.233Z,980.83
2022-10-25T11:28:03.111Z,980.88
2022-10-25T11:29:03.166Z,980.91
2022-10-25T11:30:03.296Z,980.83
2022-10-25T11:31:03.358Z,980.94
2022-10-25T11:32:03.416Z,980.95
2022-10-25T11:33:03.369Z,980.89
2022-10-25T11:34:07.978Z,980.89
2022-10-25T11:35:03.441Z,980.83
2022-10-25T11:36:03.426Z,980.86
2022-10-25T11:37:03.359Z,980.92
2022-10-25T11:38:03.394Z,980.92
2022-10-25T11:39:03.452Z,980.89
2022-10-25T11:40:03.450Z,980.75
2022-10-25T11:41:03.464Z,980.84
2022-10-25T11:42:03.456Z,980.90
2022-10-25T11:43:03.674Z,980.87
2022-10-25T11:44:03.529Z,980.84
2022-10-25T11:45:03.502Z,980.90
2022-10-25T11:46:03.659Z,980.78
2022-10-25T11:47:03.612Z,980.75
2022-10-25T11:48:03.779Z,980.90
2022-10-25T11:49:03.901Z,980.87
2022-10-25T11:50:03.774Z,980.69
2022-10-25T11:51:03.918Z,980.75
2022-10-25T11:52:03.922Z,980.69
2022-10-25T11:53:03.862Z,980.83
2022-10-25T11:54:03.810Z,980.57
2022-10-25T11:55:03.830Z,980.80
2022-10-25T11:56:03.792Z,980.66
2022-10-25T11:57:03.786Z,980.66
2022-10-25T11:58:08.271Z,980.78
2022-10-25T11:59:03.802Z,980.63
2022-10-25T12:00:03.760Z,980.86
2022-10-25T12:01:03.980Z,980.74
2022-10-25T12:02:02.931Z,980.77
2022-10-25T12:03:03.282Z,980.74
2022-10-25T12:04:03.053Z,980.77
2022-10-25T12:05:02.983Z,980.92
2022-10-25T12:06:03.098Z,980.89
2022-10-25T12:07:03.146Z,980.83
2022-10-25T12:08:03.040Z,980.77
2022-10-25T12:09:03.229Z,980.89
2022-10-25T12:10:03.258Z,980.88
2022-10-25T12:11:03.243Z,980.89
2022-10-25T12:12:03.410Z,980.92
2022-10-25T12:13:03.434Z,980.86
2022-10-25T12:14:03.300Z,980.94
2022-10-25T12:15:03.213Z,980.83
2022-10-25T12:16:03.203Z,980.86
2022-10-25T12:17:03.204Z,980.80
2022-10-25T12:18:03.336Z,980.86
2022-10-25T12:19:03.256Z,980.80
2022-10-25T12:20:03.310Z,980.77
2022-10-25T12:21:03.573Z,980.80
2022-10-25T12:22:03.759Z,980.80
2022-10-25T12:23:03.660Z,980.86
2022-10-25T12:24:03.746Z,980.74
2022-10-25T12:25:03.875Z,980.83
2022-10-25T12:26:03.789Z,980.80
2022-10-25T12:27:03.002Z,980.86
2022-10-25T12:28:02.933Z,980.69
2022-10-25T12:29:02.981Z,980.89
2022-10-25T12:30:03.053Z,980.83